createdAt,value
2023-01-24T00:00:59.220Z,101457.44
2023-01-24T00:03:25.959Z,101451.38
2023-01-24T00:05:52.622Z,101452.34
2023-01-24T00:08:20.507Z,101442.59
2023-01-24T00:10:48.456Z,101452.28
2023-01-24T00:13:16.655Z,101450.38
2023-01-24T00:15:43.363Z,101458.88
2023-01-24T00:18:10.015Z,101453.50
2023-01-24T00:20:36.689Z,101460.16
2023-01-24T00:23:03.427Z,101462.06
2023-01-24T00:25:30.077Z,101460.41
2023-01-24T00:27:56.697Z,101459.28
2023-01-24T00:30:23.309Z,101456.84
2023-01-24T00:32:50.004Z,101449.69
2023-01-24T00:35:16.655Z,101456.84
2023-01-24T00:37:43.215Z,101462.06
2023-01-24T00:40:10.530Z,101460.69
2023-01-24T00:42:37.140Z,101472.59
2023-01-24T00:45:04.142Z,101472.56
2023-01-24T00:47:30.740Z,101467.28
2023-01-24T00:49:57.350Z,101474.00
2023-01-24T00:52:23.994Z,101471.59
2023-01-24T00:54:50.739Z,101473.09
2023-01-24T00:57:17.365Z,101477.53
2023-01-24T00:59:44.017Z,101482.50
2023-01-24T01:02:10.688Z,101477.22
2023-01-24T01:04:37.313Z,101484.97
2023-01-24T01:07:03.937Z,101488.31
2023-01-24T01:09:30.529Z,101486.50
2023-01-24T01:11:57.117Z,101485.31
2023-01-24T01:14:23.753Z,101488.97
2023-01-24T01:16:50.376Z,101488.63
2023-01-24T01:19:19.783Z,101490.34
2023-01-24T01:21:46.382Z,101489.41
2023-01-24T01:24:13.158Z,101490.25
2023-01-24T01:26:39.820Z,101489.22
2023-01-24T01:29:06.407Z,101491.22
2023-01-24T01:31:33.118Z,101490.63
2023-01-24T01:33:59.797Z,101493.19
2023-01-24T01:36:26.461Z,101503.84
2023-01-24T01:38:53.168Z,101495.88
2023-01-24T01:41:20.011Z,101499.16
2023-01-24T01:43:46.628Z,101500.91
2023-01-24T01:46:22.454Z,101494.72
2023-01-24T01:48:54.419Z,101502.34
2023-01-24T01:51:24.552Z,101504.91
2023-01-24T01:53:59.249Z,101506.53
2023-01-24T01:56:31.637Z,101508.25
2023-01-24T01:59:03.419Z,101506.13
2023-01-24T02:01:31.462Z,101509.44
2023-01-24T02:04:27.956Z,101513.09
2023-01-24T02:07:10.768Z,101511.44
2023-01-24T02:09:42.826Z,101516.56
2023-01-24T02:12:14.945Z,101507.19
2023-01-24T02:14:42.887Z,101513.31
2023-01-24T02:17:10.029Z,101516.06
2023-01-24T02:19:36.581Z,101515.16
2023-01-24T02:22:28.908Z,101523.66
2023-01-24T02:25:16.795Z,101526.38
2023-01-24T02:27:43.578Z,101521.31
2023-01-24T02:30:10.969Z,101518.31
2023-01-24T02:32:37.584Z,101517.47
2023-01-24T02:35:05.551Z,101524.44
2023-01-24T02:37:36.118Z,101520.28
2023-01-24T02:40:06.899Z,101515.00
2023-01-24T02:42:39.712Z,101522.78
2023-01-24T02:45:22.111Z,101528.69
2023-01-24T02:47:51.978Z,101528.84
2023-01-24T02:50:20.545Z,101527.19
2023-01-24T02:52:47.989Z,101528.72
2023-01-24T02:55:15.605Z,101535.00
2023-01-24T02:57:42.200Z,101530.78
2023-01-24T03:00:09.632Z,101532.44
2023-01-24T03:02:36.230Z,101533.56
2023-01-24T03:05:02.936Z,101535.59
2023-01-24T03:07:29.586Z,101540.69
2023-01-24T03:09:56.215Z,101550.88
2023-01-24T03:12:22.874Z,101542.72
2023-01-24T03:14:49.723Z,101549.44
2023-01-24T03:17:16.388Z,101548.53
2023-01-24T03:19:43.010Z,101548.53
2023-01-24T03:22:09.883Z,101537.03
2023-01-24T03:24:36.654Z,101548.59
2023-01-24T03:27:03.352Z,101540.84
2023-01-24T03:29:30.119Z,101542.41
2023-01-24T03:31:57.231Z,101549.69
2023-01-24T03:34:23.925Z,101552.66
2023-01-24T03:36:50.501Z,101538.53
2023-01-24T03:39:17.123Z,101548.63
2023-01-24T03:41:43.994Z,101550.25
2023-01-24T03:44:10.893Z,101552.81
2023-01-24T03:46:37.539Z,101555.66
2023-01-24T03:49:04.131Z,101552.84
2023-01-24T03:51:30.834Z,101544.03
2023-01-24T03:53:57.431Z,101552.88
2023-01-24T03:56:24.043Z,101551.91
2023-01-24T03:58:50.628Z,101543.03
2023-01-24T04:01:17.301Z,101544.88
2023-01-24T04:03:43.927Z,101546.47
2023-01-24T04:06:10.581Z,101551.44
2023-01-24T04:08:37.153Z,101554.00
2023-01-24T04:11:03.922Z,101556.44
2023-01-24T04:13:30.748Z,101550.00
2023-01-24T04:15:57.482Z,101554.44
2023-01-24T04:18:24.091Z,101555.72
2023-01-24T04:20:50.749Z,101553.41
2023-01-24T04:23:17.338Z,101553.63
2023-01-24T04:25:49.364Z,101550.75
2023-01-24T04:28:15.951Z,101549.56
2023-01-24T04:30:42.696Z,101546.84
2023-01-24T04:33:09.351Z,101551.91
2023-01-24T04:35:36.011Z,101547.72
2023-01-24T04:38:02.810Z,101554.41
2023-01-24T04:40:29.629Z,101548.34
2023-01-24T04:42:59.405Z,101550.13
2023-01-24T04:45:26.560Z,101549.91
2023-01-24T04:47:54.842Z,101548.38
2023-01-24T04:50:22.049Z,101553.56
2023-01-24T04:52:48.685Z,101559.44
2023-01-24T04:55:15.366Z,101554.22
2023-01-24T04:57:42.010Z,101559.28
2023-01-24T05:00:09.263Z,101557.41
2023-01-24T05:02:36.074Z,101572.09
2023-01-24T05:05:02.657Z,101573.13
2023-01-24T05:07:29.264Z,101569.91
2023-01-24T05:09:55.940Z,101564.16
2023-01-24T05:12:22.545Z,101571.00
2023-01-24T05:14:49.125Z,101563.97
2023-01-24T05:17:15.913Z,101569.41
2023-01-24T05:19:42.566Z,101567.88
2023-01-24T05:22:09.331Z,101577.47
2023-01-24T05:24:35.976Z,101574.84
2023-01-24T05:27:02.573Z,101577.09
2023-01-24T05:29:29.208Z,101572.25
2023-01-24T05:31:55.965Z,101573.69
2023-01-24T05:34:22.592Z,101572.88
2023-01-24T05:36:49.183Z,101570.34
2023-01-24T05:39:15.901Z,101572.25
2023-01-24T05:41:42.590Z,101578.25
2023-01-24T05:44:10.012Z,101570.66
2023-01-24T05:46:36.793Z,101580.25
2023-01-24T05:49:03.690Z,101572.88
2023-01-24T05:51:30.370Z,101587.31
2023-01-24T05:53:56.974Z,101582.47
2023-01-24T05:56:23.595Z,101588.97
2023-01-24T05:58:50.344Z,101583.19
2023-01-24T06:01:20.117Z,101582.22
2023-01-24T06:03:49.682Z,101587.94
2023-01-24T06:06:18.631Z,101585.41
2023-01-24T06:08:45.486Z,101599.28
2023-01-24T06:11:17.643Z,101596.28
2023-01-24T06:13:45.553Z,101598.09
2023-01-24T06:16:15.509Z,101595.13
2023-01-24T06:18:42.834Z,101598.09
2023-01-24T06:21:28.170Z,101599.94
2023-01-24T06:23:55.106Z,101602.66
2023-01-24T06:26:22.051Z,101603.50
2023-01-24T06:28:48.966Z,101607.94
2023-01-24T06:31:20.484Z,101608.84
2023-01-24T06:34:06.706Z,101614.88
2023-01-24T06:36:36.371Z,101605.56
2023-01-24T06:39:03.431Z,101608.28
2023-01-24T06:41:30.356Z,101605.38
2023-01-24T06:43:57.388Z,101604.81
2023-01-24T06:46:24.207Z,101608.09
2023-01-24T06:48:50.827Z,101613.91
2023-01-24T06:51:17.470Z,101608.56
2023-01-24T06:53:44.052Z,101609.44
2023-01-24T06:56:10.793Z,101611.13
2023-01-24T06:58:37.600Z,101615.50
2023-01-24T07:01:04.388Z,101620.19
2023-01-24T07:03:31.136Z,101621.59
2023-01-24T07:05:57.849Z,101623.19
2023-01-24T07:08:24.491Z,101626.34
2023-01-24T07:10:51.098Z,101630.72
2023-01-24T07:13:17.725Z,101637.47
2023-01-24T07:15:44.352Z,101633.09
2023-01-24T07:18:16.389Z,101629.88
2023-01-24T07:20:43.422Z,101629.03
2023-01-24T07:23:27.629Z,101635.78
2023-01-24T07:25:54.842Z,101634.56
2023-01-24T07:28:21.785Z,101633.50
2023-01-24T07:30:49.932Z,101636.19
2023-01-24T07:33:16.656Z,101638.22
2023-01-24T07:35:43.764Z,101646.50
2023-01-24T07:38:11.124Z,101647.03
2023-01-24T07:40:37.813Z,101648.63
2023-01-24T07:43:05.431Z,101645.09
2023-01-24T07:45:33.008Z,101645.84
2023-01-24T07:48:00.265Z,101649.16
2023-01-24T07:50:27.951Z,101650.91
2023-01-24T07:52:55.484Z,101656.22
2023-01-24T07:55:23.447Z,101649.19
2023-01-24T07:57:50.381Z,101670.00
2023-01-24T08:00:17.935Z,101666.81
2023-01-24T08:02:45.845Z,101665.09
2023-01-24T08:05:12.546Z,101671.88
2023-01-24T08:07:39.149Z,101677.00
2023-01-24T08:10:06.525Z,101675.22
2023-01-24T08:12:33.167Z,101678.69
2023-01-24T08:14:59.775Z,101676.09
2023-01-24T08:17:26.381Z,101678.19
2023-01-24T08:19:56.857Z,101686.44
2023-01-24T08:22:27.629Z,101676.97
2023-01-24T08:24:54.412Z,101685.13
2023-01-24T08:27:21.236Z,101690.50
2023-01-24T08:29:47.863Z,101687.78
2023-01-24T08:32:14.638Z,101687.00
2023-01-24T08:34:41.288Z,101690.41
2023-01-24T08:37:07.954Z,101686.75
2023-01-24T08:39:34.612Z,101695.47
2023-01-24T08:42:01.239Z,101693.69
2023-01-24T08:44:27.889Z,101692.53
2023-01-24T08:46:54.641Z,101698.16
2023-01-24T08:49:21.287Z,101700.09
2023-01-24T08:51:47.922Z,101697.84
2023-01-24T08:54:15.661Z,101705.47
2023-01-24T08:56:42.342Z,101694.25
2023-01-24T08:59:09.011Z,101699.31
2023-01-24T09:01:35.637Z,101700.72
2023-01-24T09:04:02.257Z,101704.72
2023-01-24T09:06:29.006Z,101697.94
2023-01-24T09:08:55.756Z,101704.00
2023-01-24T09:11:22.797Z,101703.41
2023-01-24T09:13:49.541Z,101706.88
2023-01-24T09:16:16.240Z,101702.31
2023-01-24T09:18:44.041Z,101700.91
2023-01-24T09:21:11.422Z,101702.72
2023-01-24T09:23:38.308Z,101694.69
2023-01-24T09:26:05.131Z,101706.25
2023-01-24T09:28:31.734Z,101700.94
2023-01-24T09:30:58.463Z,101691.91
2023-01-24T09:33:25.218Z,101705.06
2023-01-24T09:35:56.506Z,101703.50
2023-01-24T09:38:23.125Z,101703.44
2023-01-24T09:41:09.999Z,101705.59
2023-01-24T09:43:55.375Z,101694.00
2023-01-24T09:46:34.101Z,101688.47
2023-01-24T09:49:25.557Z,101692.28
2023-01-24T09:51:55.507Z,101681.41
2023-01-24T09:54:45.151Z,101681.47
2023-01-24T09:57:26.250Z,101686.03
2023-01-24T10:00:02.023Z,101669.69
2023-01-24T10:02:30.325Z,101673.19
2023-01-24T10:04:57.060Z,101669.81
2023-01-24T10:07:45.573Z,101671.50
2023-01-24T10:10:27.281Z,101676.06
2023-01-24T10:13:16.259Z,101668.44
2023-01-24T10:16:17.586Z,101662.34
2023-01-24T10:19:04.216Z,101655.31
2023-01-24T10:21:45.934Z,101665.03
2023-01-24T10:24:21.323Z,101668.53
2023-01-24T10:26:52.793Z,101664.34
2023-01-24T10:29:26.148Z,101660.03
2023-01-24T10:32:13.119Z,101658.75
2023-01-24T10:34:48.911Z,101662.25
2023-01-24T10:37:21.094Z,101662.28
2023-01-24T10:39:47.791Z,101659.84
2023-01-24T10:42:24.467Z,101650.88
2023-01-24T10:44:52.773Z,101652.59
2023-01-24T10:47:43.008Z,101656.09
2023-01-24T10:50:19.218Z,101642.84
2023-01-24T10:52:46.437Z,101646.00
2023-01-24T10:55:35.547Z,101646.75
2023-01-24T10:58:15.860Z,101642.16
2023-01-24T11:00:44.446Z,101632.53
2023-01-24T11:03:27.128Z,101624.75
2023-01-24T11:05:58.190Z,101623.03
2023-01-24T11:08:25.655Z,101627.41
2023-01-24T11:10:57.498Z,101614.38
2023-01-24T11:13:37.121Z,101614.56
2023-01-24T11:16:06.702Z,101606.03
2023-01-24T11:18:34.987Z,101604.22
2023-01-24T11:21:10.113Z,101595.63
2023-01-24T11:23:37.049Z,101596.66
2023-01-24T11:26:06.528Z,101594.97
2023-01-24T11:28:36.143Z,101595.66
2023-01-24T11:31:27.223Z,101593.50
2023-01-24T11:34:12.277Z,101586.41
2023-01-24T11:36:59.860Z,101586.34
2023-01-24T11:39:35.498Z,101582.06
2023-01-24T11:42:20.536Z,101578.63
2023-01-24T11:45:31.631Z,101586.22
2023-01-24T11:48:06.190Z,101580.19
2023-01-24T11:50:51.801Z,101590.38
2023-01-24T11:53:19.307Z,101582.31
2023-01-24T11:55:56.676Z,101571.72
2023-01-24T11:58:39.595Z,101578.72
2023-01-24T12:01:12.236Z,101574.53
2023-01-24T12:03:49.676Z,101563.06
2023-01-24T12:06:34.288Z,101576.25
2023-01-24T12:09:18.967Z,101565.72
2023-01-24T12:11:57.603Z,101561.47
2023-01-24T12:14:27.030Z,101559.16
2023-01-24T12:16:56.782Z,101568.34
2023-01-24T12:19:35.519Z,101567.41
2023-01-24T12:22:02.639Z,101564.78
2023-01-24T12:24:35.100Z,101563.13
2023-01-24T12:27:07.260Z,101564.16
2023-01-24T12:29:34.916Z,101567.47
2023-01-24T12:32:32.704Z,101568.44
2023-01-24T12:35:07.057Z,101568.34
2023-01-24T12:37:49.971Z,101570.13
2023-01-24T12:40:24.948Z,101569.22
2023-01-24T12:43:13.654Z,101571.00
2023-01-24T12:46:02.396Z,101564.94
2023-01-24T12:48:37.956Z,101567.34
2023-01-24T12:51:04.577Z,101558.66
2023-01-24T12:53:39.670Z,101563.06
2023-01-24T12:56:43.680Z,101569.22
2023-01-24T12:59:12.593Z,101560.50
2023-01-24T13:02:17.566Z,101562.16
2023-01-24T13:05:05.992Z,101557.81
2023-01-24T13:07:41.627Z,101560.31
2023-01-24T13:10:23.084Z,101559.53
2023-01-24T13:12:52.219Z,101549.88
2023-01-24T13:15:47.012Z,101551.50
2023-01-24T13:18:20.540Z,101554.34
2023-01-24T13:20:50.014Z,101554.13
2023-01-24T13:23:26.247Z,101549.91
2023-01-24T13:26:12.814Z,101554.19
2023-01-24T13:29:10.736Z,101554.94
2023-01-24T13:32:03.600Z,101561.81
2023-01-24T13:34:35.135Z,101554.94
2023-01-24T13:37:03.274Z,101558.41
2023-01-24T13:39:40.151Z,101565.38
2023-01-24T13:42:34.937Z,101559.09
2023-01-24T13:45:24.352Z,101560.09
2023-01-24T13:47:51.347Z,101567.25
2023-01-24T13:50:22.840Z,101562.13
2023-01-24T13:52:56.788Z,101561.44
2023-01-24T13:55:23.409Z,101566.50
2023-01-24T13:58:09.953Z,101563.00
2023-01-24T14:00:42.259Z,101562.16
2023-01-24T14:03:19.633Z,101568.88
2023-01-24T14:05:53.901Z,101567.22
2023-01-24T14:08:26.396Z,101558.66
2023-01-24T14:10:56.178Z,101563.19
2023-01-24T14:13:50.502Z,101562.28
2023-01-24T14:16:26.025Z,101558.69
2023-01-24T14:18:58.621Z,101558.75
2023-01-24T14:21:49.413Z,101561.28
2023-01-24T14:24:25.873Z,101568.22
2023-01-24T14:26:55.095Z,101562.91
2023-01-24T14:29:34.751Z,101558.50
2023-01-24T14:32:01.646Z,101559.31
2023-01-24T14:34:39.140Z,101562.91
2023-01-24T14:37:13.231Z,101563.63
2023-01-24T14:39:39.926Z,101561.75
2023-01-24T14:42:13.214Z,101568.59
2023-01-24T14:44:52.212Z,101561.69
2023-01-24T14:47:24.747Z,101563.34
2023-01-24T14:49:53.647Z,101566.16
2023-01-24T14:52:22.641Z,101563.47
2023-01-24T14:55:01.011Z,101572.31
2023-01-24T14:57:32.865Z,101572.84
2023-01-24T15:00:01.800Z,101572.81
2023-01-24T15:02:28.643Z,101577.09
2023-01-24T15:04:55.590Z,101574.31
2023-01-24T15:07:22.303Z,101576.75
2023-01-24T15:09:49.077Z,101572.72
2023-01-24T15:12:33.792Z,101582.13
2023-01-24T15:15:03.127Z,101584.19
2023-01-24T15:17:32.553Z,101587.69
2023-01-24T15:20:07.153Z,101596.34
2023-01-24T15:22:37.888Z,101591.97
2023-01-24T15:25:15.398Z,101590.84
2023-01-24T15:27:45.350Z,101591.59
2023-01-24T15:30:28.583Z,101591.03
2023-01-24T15:32:58.060Z,101597.69
2023-01-24T15:35:27.558Z,101592.13
2023-01-24T15:38:06.410Z,101591.94
2023-01-24T15:41:05.688Z,101606.28
2023-01-24T15:43:35.891Z,101603.41
2023-01-24T15:46:05.762Z,101598.13
2023-01-24T15:48:32.505Z,101605.31
2023-01-24T15:50:59.108Z,101608.75
2023-01-24T15:53:28.315Z,101609.84
2023-01-24T15:55:56.783Z,101609.72
2023-01-24T15:58:23.394Z,101608.78
2023-01-24T16:00:58.519Z,101613.66
2023-01-24T16:03:25.714Z,101614.06
2023-01-24T16:05:52.593Z,101617.47
2023-01-24T16:08:19.537Z,101620.63
2023-01-24T16:10:48.115Z,101621.47
2023-01-24T16:13:32.395Z,101628.66
2023-01-24T16:16:01.085Z,101631.06
2023-01-24T16:18:28.439Z,101625.59
2023-01-24T16:20:55.229Z,101634.13
2023-01-24T16:23:22.041Z,101627.75
2023-01-24T16:25:51.139Z,101631.50
2023-01-24T16:28:23.141Z,101635.69
2023-01-24T16:30:51.140Z,101641.28
2023-01-24T16:33:19.806Z,101629.25
2023-01-24T16:35:47.340Z,101629.31
2023-01-24T16:38:15.167Z,101631.00
2023-01-24T16:40:42.383Z,101629.97
2023-01-24T16:43:18.225Z,101629.75
2023-01-24T16:45:50.766Z,101646.41
2023-01-24T16:48:18.177Z,101636.00
2023-01-24T16:50:46.106Z,101636.78
2023-01-24T16:53:14.647Z,101625.19
2023-01-24T16:55:41.891Z,101639.63
2023-01-24T16:58:10.619Z,101644.50
2023-01-24T17:00:38.306Z,101642.88
2023-01-24T17:03:05.520Z,101639.19
2023-01-24T17:05:32.668Z,101648.75
2023-01-24T17:07:59.324Z,101640.97
2023-01-24T17:10:26.105Z,101646.78
2023-01-24T17:12:52.724Z,101638.84
2023-01-24T17:15:19.384Z,101644.91
2023-01-24T17:17:46.236Z,101644.84
2023-01-24T17:20:13.134Z,101645.16
2023-01-24T17:22:39.873Z,101648.94
2023-01-24T17:25:07.451Z,101650.84
2023-01-24T17:27:34.371Z,101646.47
2023-01-24T17:30:01.079Z,101644.66
2023-01-24T17:32:27.872Z,101641.88
2023-01-24T17:34:54.463Z,101647.25
2023-01-24T17:37:21.075Z,101647.06
2023-01-24T17:39:50.641Z,101651.16
2023-01-24T17:42:17.483Z,101649.59
2023-01-24T17:44:44.072Z,101651.91
2023-01-24T17:47:10.766Z,101650.31
2023-01-24T17:49:37.677Z,101652.66
2023-01-24T17:52:04.443Z,101649.59
2023-01-24T17:54:31.158Z,101654.00
2023-01-24T17:56:57.785Z,101655.88
2023-01-24T17:59:24.566Z,101648.00
2023-01-24T18:01:51.256Z,101644.31
2023-01-24T18:04:18.037Z,101647.78
2023-01-24T18:06:44.724Z,101649.59
2023-01-24T18:09:11.879Z,101644.22
2023-01-24T18:11:38.640Z,101648.53
2023-01-24T18:14:05.266Z,101650.66
2023-01-24T18:16:32.093Z,101653.81
2023-01-24T18:18:58.816Z,101653.91
2023-01-24T18:21:26.787Z,101655.81
2023-01-24T18:23:58.772Z,101653.91
2023-01-24T18:26:27.609Z,101653.34
2023-01-24T18:28:56.925Z,101652.16
2023-01-24T18:31:23.945Z,101653.50
2023-01-24T18:33:55.073Z,101656.88
2023-01-24T18:36:22.029Z,101660.72
2023-01-24T18:38:49.008Z,101653.13
2023-01-24T18:41:15.969Z,101654.81
2023-01-24T18:43:42.939Z,101654.56
2023-01-24T18:46:13.527Z,101656.22
2023-01-24T18:48:43.096Z,101654.88
2023-01-24T18:51:15.920Z,101662.00
2023-01-24T18:53:43.395Z,101652.59
2023-01-24T18:56:10.313Z,101655.25
2023-01-24T18:58:38.773Z,101649.88
2023-01-24T19:01:25.270Z,101652.94
2023-01-24T19:03:52.938Z,101652.63
2023-01-24T19:06:27.461Z,101654.94
2023-01-24T19:09:04.538Z,101650.75
2023-01-24T19:11:37.399Z,101652.91
2023-01-24T19:14:05.502Z,101649.31
2023-01-24T19:16:36.839Z,101654.59
2023-01-24T19:19:04.601Z,101662.00
2023-01-24T19:21:31.344Z,101661.69
2023-01-24T19:23:58.934Z,101659.03
2023-01-24T19:26:25.560Z,101660.63
2023-01-24T19:28:56.819Z,101659.50
2023-01-24T19:31:24.045Z,101662.78
2023-01-24T19:33:51.861Z,101670.34
2023-01-24T19:36:19.175Z,101666.09
2023-01-24T19:38:53.807Z,101665.91
2023-01-24T19:41:20.701Z,101665.31
2023-01-24T19:44:03.409Z,101665.63
2023-01-24T19:46:33.955Z,101673.06
2023-01-24T19:49:01.717Z,101668.16
2023-01-24T19:51:28.352Z,101666.63
2023-01-24T19:53:54.939Z,101671.72
2023-01-24T19:56:21.536Z,101667.75
2023-01-24T19:58:48.248Z,101671.16
2023-01-24T20:01:18.020Z,101673.75
2023-01-24T20:03:45.181Z,101674.44
2023-01-24T20:06:14.634Z,101676.53
2023-01-24T20:08:59.490Z,101669.19
2023-01-24T20:11:26.156Z,101675.06
2023-01-24T20:13:56.591Z,101676.84
2023-01-24T20:16:28.425Z,101678.75
2023-01-24T20:18:59.991Z,101675.66
2023-01-24T20:21:29.258Z,101675.59
2023-01-24T20:23:58.214Z,101676.44
2023-01-24T20:26:26.094Z,101670.16
2023-01-24T20:28:52.795Z,101670.91
2023-01-24T20:31:20.202Z,101677.81
2023-01-24T20:33:48.377Z,101673.16
2023-01-24T20:36:15.770Z,101679.28
2023-01-24T20:38:42.348Z,101684.56
2023-01-24T20:41:13.782Z,101677.91
2023-01-24T20:43:42.023Z,101679.53
2023-01-24T20:46:12.992Z,101680.25
2023-01-24T20:48:41.779Z,101682.53
2023-01-24T20:51:08.447Z,101678.59
2023-01-24T20:53:35.443Z,101676.88
2023-01-24T20:56:04.879Z,101684.94
2023-01-24T20:58:31.660Z,101678.97
2023-01-24T21:01:10.695Z,101675.34
2023-01-24T21:03:37.327Z,101685.50
2023-01-24T21:06:06.784Z,101684.47
2023-01-24T21:08:35.032Z,101681.56
2023-01-24T21:11:01.860Z,101686.97
2023-01-24T21:13:40.938Z,101684.56
2023-01-24T21:16:13.072Z,101687.75
2023-01-24T21:18:41.467Z,101698.31
2023-01-24T21:21:09.541Z,101692.97
2023-01-24T21:23:38.643Z,101689.63
2023-01-24T21:26:06.611Z,101698.78
2023-01-24T21:28:34.334Z,101700.16
2023-01-24T21:31:10.917Z,101705.19
2023-01-24T21:33:37.596Z,101697.97
2023-01-24T21:36:10.395Z,101695.31
2023-01-24T21:38:37.395Z,101698.78
2023-01-24T21:41:06.764Z,101696.72
2023-01-24T21:43:33.470Z,101697.06
2023-01-24T21:46:00.170Z,101697.34
2023-01-24T21:48:26.824Z,101693.81
2023-01-24T21:50:53.419Z,101688.28
2023-01-24T21:53:20.150Z,101692.22
2023-01-24T21:55:49.148Z,101697.63
2023-01-24T21:58:15.774Z,101684.56
2023-01-24T22:00:42.383Z,101680.41
2023-01-24T22:03:09.019Z,101689.31
2023-01-24T22:05:35.743Z,101692.84
2023-01-24T22:08:02.491Z,101692.84
2023-01-24T22:10:29.120Z,101689.75
2023-01-24T22:12:55.818Z,101688.19
2023-01-24T22:15:23.030Z,101689.06
2023-01-24T22:17:49.956Z,101698.69
2023-01-24T22:20:18.191Z,101690.84
2023-01-24T22:23:08.784Z,101696.72
2023-01-24T22:25:51.093Z,101693.84
2023-01-24T22:28:21.031Z,101686.56
2023-01-24T22:30:48.625Z,101694.59
2023-01-24T22:33:15.570Z,101689.63
2023-01-24T22:35:44.396Z,101685.28
2023-01-24T22:38:11.114Z,101692.28
2023-01-24T22:40:37.772Z,101699.34
2023-01-24T22:43:04.579Z,101697.75
2023-01-24T22:45:31.255Z,101700.56
2023-01-24T22:47:57.870Z,101695.03
2023-01-24T22:50:24.704Z,101693.50
2023-01-24T22:52:53.792Z,101699.44
2023-01-24T22:55:20.540Z,101690.06
2023-01-24T22:57:47.201Z,101694.13
2023-01-24T23:00:14.856Z,101696.84
2023-01-24T23:02:41.464Z,101701.56
2023-01-24T23:05:08.876Z,101699.91
2023-01-24T23:07:35.909Z,101700.78
2023-01-24T23:10:02.557Z,101692.03
2023-01-24T23:12:29.286Z,101690.81
2023-01-24T23:14:55.985Z,101694.81
2023-01-24T23:17:23.201Z,101696.56
2023-01-24T23:19:49.883Z,101693.19
2023-01-24T23:22:19.100Z,101694.69
2023-01-24T23:24:46.265Z,101692.06
2023-01-24T23:27:14.673Z,101697.47
2023-01-24T23:29:50.079Z,101698.56
2023-01-24T23:32:16.813Z,101700.53
2023-01-24T23:34:57.875Z,101695.09
2023-01-24T23:37:26.462Z,101689.78
2023-01-24T23:39:53.832Z,101694.75
2023-01-24T23:42:21.438Z,101681.50
2023-01-24T23:44:48.113Z,101684.41
2023-01-24T23:47:15.471Z,101681.25
2023-01-24T23:49:42.124Z,101681.75
2023-01-24T23:52:08.767Z,101685.50
2023-01-24T23:54:35.858Z,101684.16
2023-01-24T23:57:03.047Z,101688.41
2023-01-24T23:59:30.128Z,101692.75
